Flight Track Log - Related Links

Times and Time Zones

All times are in EDT time to prevent confusion due to time zone crossing. See the DAL1283 flight status page for this flight to view local times or setup timezone preferences in your user account.


Time Position Orientation Groundspeed Altitude Reporting Facility
EDT Latitude Longitude Course Direction KTS MPH feet Rate Location/Type
Thu 07:13:06 AM 42.9500 -71.4167 200° South 167 192 1,200  Level KA90
Thu 07:13:24 AM 42.9667 -71.4167 360° North 162 186 1,600 2,241 Climbing KA90
Thu 07:15:44 AM 43.0486 -71.2639 54° Northeast 233 268 7,100 2,580 Climbing Boston Center
Thu 07:16:00 AM 43.0041 -70.8874 144° Southeast  Level FlightAware Approximate
Thu 07:16:44 AM 43.0561 -71.1642 84° East 260 299 10,200  Level Boston Center
Thu 07:17:00 AM 42.8956 -70.9155 202° Southwest  Level FlightAware Approximate
Thu 07:17:44 AM 43.0736 -71.0586 77° East 273 314 11,400  Level Boston Center
Thu 07:18:00 AM 42.7825 -70.9672 200° South  Level FlightAware Approximate
Thu 07:18:44 AM 43.0556 -70.9456 102° East 302 348 12,800  Level Boston Center
Thu 07:19:44 AM 42.9389 -70.9511 182° South 324 373 15,100 1,950 Climbing Boston Center
Thu 07:20:44 AM 42.8819 -71.0772 238° Southwest 365 420 16,700 1,600 Climbing Boston Center
Thu 07:21:44 AM 42.8108 -71.2372 239° Southwest 421 484 18,300 1,600 Climbing Boston Center
Thu 07:22:44 AM 42.7519 -71.3883 242° Southwest 450 518 19,900 1,550 Climbing Boston Center
Thu 07:23:44 AM 42.6967 -71.5136 239° Southwest 468 539 21,400 1,650 Climbing Boston Center
Thu 07:24:44 AM 42.6189 -71.6867 239° Southwest 480 552 23,200 1,600 Climbing Boston Center
Thu 07:25:44 AM 42.5489 -71.8456 239° Southwest 485 558 24,600 1,550 Climbing Boston Center
Thu 07:26:44 AM 42.4747 -72.0039 238° Southwest 496 571 26,300 1,700 Climbing Boston Center
Thu 07:27:44 AM 42.3875 -72.1450 230° Southwest 501 577 28,000 1,500 Climbing Boston Center
Thu 07:28:44 AM 42.2942 -72.3053 232° Southwest 501 577 29,300 1,300 Climbing Boston Center
Thu 07:29:44 AM 42.2067 -72.4486 231° Southwest 501 577 30,600 1,150 Climbing Boston Center
Thu 07:30:44 AM 42.1231 -72.5914 232° Southwest 496 571 31,600 850 Climbing Boston Center
Thu 07:31:44 AM 42.0478 -72.7111 230° Southwest 485 558 32,300 750 Climbing Boston Center
Thu 07:32:44 AM 41.9578 -72.8533 230° Southwest 485 558 33,100 800 Climbing Boston Center
Thu 07:33:44 AM 41.8572 -73.0114 230° Southwest 500 575 33,900 450 Climbing Boston Center
Thu 07:34:44 AM 41.7708 -73.1497 230° Southwest 500 575 34,000 50 Climbing Boston Center
Thu 07:35:44 AM 41.6825 -73.2822 228° Southwest 494 568 34,000  Level Boston Center
Thu 07:37:23 AM 41.5533 -73.4825 229° Southwest 475 547 34,000  Level New York Center
Thu 07:38:21 AM 41.4647 -73.6200 229° Southwest 481 554 34,000  Level New York Center
Thu 07:39:21 AM 41.3758 -73.7544 229° Southwest 481 554 34,000  Level New York Center
Thu 07:40:23 AM 41.2892 -73.8886 229° Southwest 486 559 34,000  Level New York Center
Thu 07:41:21 AM 41.1981 -74.0194 227° Southwest 486 559 34,000  Level New York Center
Thu 07:42:22 AM 41.1089 -74.1528 228° Southwest 486 559 34,000  Level New York Center
Thu 07:43:23 AM 41.0153 -74.2992 230° Southwest 486 559 34,000  Level New York Center
Thu 07:44:21 AM 40.9339 -74.4350 232° Southwest 486 559 34,000 -51 Level New York Center
Thu 07:45:21 AM 40.8506 -74.5678 230° Southwest 481 554 33,900  Descending New York Center
Thu 07:46:22 AM 40.7669 -74.7028 231° Southwest 481 554 34,000 50 Climbing New York Center
Thu 07:47:22 AM 40.6833 -74.8322 230° Southwest 481 554 34,000  Level New York Center
Thu 07:48:23 AM 40.6017 -74.9639 231° Southwest 476 548 34,000  Level New York Center
Thu 07:49:21 AM 40.5178 -75.0953 230° Southwest 476 548 34,000  Level New York Center
Thu 07:50:21 AM 40.4336 -75.2264 230° Southwest 481 554 34,000 -50 Level New York Center
Thu 07:51:21 AM 40.3517 -75.3572 231° Southwest 479 551 33,900  Descending New York Center
Thu 07:52:23 AM 40.2714 -75.4853 231° Southwest 474 545 34,000 49 Climbing New York Center
Thu 07:53:23 AM 40.1997 -75.6081 233° Southwest 474 545 34,000  Level New York Center
Thu 07:54:22 AM 40.1314 -75.7500 238° Southwest 474 545 34,000  Level New York Center
Thu 07:55:23 AM 40.0608 -75.8861 236° Southwest 469 540 34,000  Level New York Center
Thu 07:57:10 AM 39.9292 -76.1408 236° Southwest 471 542 34,000  Level Washington Center
Thu 07:58:10 AM 39.8597 -76.2781 237° Southwest 471 542 34,000 -49 Level Washington Center
Thu 07:59:12 AM 39.7900 -76.4178 237° Southwest 466 536 33,900  Descending Washington Center
Thu 08:00:12 AM 39.7139 -76.5492 233° Southwest 466 536 34,000 50 Climbing Washington Center
Thu 08:01:11 AM 39.6442 -76.6883 237° Southwest 466 536 34,000  Level Washington Center
Thu 08:02:11 AM 39.5739 -76.8244 236° Southwest 466 536 34,000  Level Washington Center
Thu 08:03:11 AM 39.5039 -76.9606 236° Southwest 460 529 34,000  Level Washington Center
Thu 08:04:12 AM 39.4108 -77.0689 222° Southwest 460 529 34,000  Level Washington Center
Thu 08:05:12 AM 39.3136 -77.1717 219° Southwest 455 524 34,000  Level Washington Center
Thu 08:06:11 AM 39.2144 -77.2711 218° Southwest 455 524 34,000  Level Washington Center
Thu 08:07:11 AM 39.1169 -77.3706 218° Southwest 455 524 34,000  Level Washington Center
Thu 08:08:12 AM 39.0217 -77.4700 219° Southwest 455 524 34,000  Level Washington Center
Thu 08:09:12 AM 38.9283 -77.5742 221° Southwest 455 524 34,000  Level Washington Center
Thu 08:10:10 AM 38.8328 -77.6728 219° Southwest 450 518 34,000  Level Washington Center
Thu 08:11:11 AM 38.7244 -77.7844 219° Southwest 456 525 34,000  Level Washington Center
Thu 08:12:11 AM 38.6308 -77.8853 220° Southwest 451 519 34,000  Level Washington Center
Thu 08:13:12 AM 38.5575 -78.0103 233° Southwest 441 507 34,000  Level Washington Center
Thu 08:14:12 AM 38.4842 -78.1378 234° Southwest 447 514 34,000  Level Washington Center
Thu 08:15:09 AM 38.4083 -78.2653 233° Southwest 453 521 34,000  Level Washington Center
Thu 08:16:10 AM 38.3347 -78.3897 233° Southwest 453 521 34,000  Level Washington Center
Thu 08:17:11 AM 38.2606 -78.5164 233° Southwest 453 521 34,000  Level Washington Center
Thu 08:18:11 AM 38.1867 -78.6431 233° Southwest 453 521 34,000  Level Washington Center
Thu 08:19:12 AM 38.1106 -78.7667 232° Southwest 448 516 34,000  Level Washington Center
Thu 08:20:10 AM 38.0342 -78.8925 232° Southwest 448 516 34,000  Level Washington Center
Thu 08:21:11 AM 37.9619 -79.0106 232° Southwest 448 516 34,000  Level Washington Center
Thu 08:22:12 AM 37.8919 -79.1231 232° Southwest 448 516 34,000  Level Washington Center
Thu 08:23:12 AM 37.8092 -79.2375 228° Southwest 448 516 34,000  Level Washington Center
Thu 08:24:12 AM 37.7156 -79.3617 226° Southwest 448 516 34,000  Level Washington Center
Thu 08:25:10 AM 37.6436 -79.4631 228° Southwest 448 516 34,000  Level Washington Center
Thu 08:26:10 AM 37.5542 -79.5842 227° Southwest 443 510 34,000  Level Washington Center
Thu 08:27:12 AM 37.4797 -79.6875 228° Southwest 443 510 34,000  Level Washington Center
Thu 08:28:09 AM 37.3964 -79.8058 228° Southwest 455 524 34,000  Level Washington Center
Thu 08:29:10 AM 37.3131 -79.9164 227° Southwest 455 524 34,000  Level Washington Center
Thu 08:30:11 AM 37.2231 -80.0389 227° Southwest 449 517 34,000  Level Washington Center
Thu 08:31:49 AM 37.0894 -80.2167 227° Southwest 435 501 34,000  Level Atlanta Center
Thu 08:32:49 AM 37.0175 -80.3164 228° Southwest 429 494 34,000  Level Atlanta Center
Thu 08:33:49 AM 36.9353 -80.4267 227° Southwest 429 494 34,000  Level Atlanta Center
Thu 08:34:49 AM 36.8528 -80.5367 227° Southwest 435 501 34,000  Level Atlanta Center
Thu 08:35:49 AM 36.7625 -80.6572 227° Southwest 430 495 34,000  Level Atlanta Center
Thu 08:36:49 AM 36.6839 -80.7617 227° Southwest 430 495 34,000  Level Atlanta Center
Thu 08:37:49 AM 36.6014 -80.8711 227° Southwest 436 502 34,000  Level Atlanta Center
Thu 08:38:49 AM 36.5167 -80.9828 227° Southwest 436 502 34,000  Level Atlanta Center
Thu 08:39:49 AM 36.4419 -81.0811 227° Southwest 431 496 34,000  Level Atlanta Center
Thu 08:40:49 AM 36.3611 -81.1897 227° Southwest 431 496 34,000  Level Atlanta Center
Thu 08:41:49 AM 36.2781 -81.2983 227° Southwest 436 502 34,000  Level Atlanta Center
Thu 08:42:49 AM 36.1908 -81.4094 226° Southwest 436 502 34,000  Level Atlanta Center
Thu 08:43:49 AM 36.1117 -81.5147 227° Southwest 431 496 34,000  Level Atlanta Center
Thu 08:44:49 AM 36.0261 -81.6278 227° Southwest 437 503 34,000  Level Atlanta Center
Thu 08:45:49 AM 35.9428 -81.7356 226° Southwest 432 497 34,000  Level Atlanta Center
Thu 08:46:49 AM 35.8572 -81.8431 226° Southwest 432 497 34,000  Level Atlanta Center
Thu 08:47:49 AM 35.7756 -81.9503 227° Southwest 432 497 34,000  Level Atlanta Center
Thu 08:48:49 AM 35.6919 -82.0572 226° Southwest 437 503 34,000  Level Atlanta Center
Thu 08:49:49 AM 35.6019 -82.1717 226° Southwest 432 497 34,000  Level Atlanta Center
Thu 08:50:49 AM 35.5200 -82.2756 226° Southwest 432 497 34,000  Level Atlanta Center
Thu 08:51:49 AM 35.4378 -82.3792 226° Southwest 432 497 34,000 -450 Level Atlanta Center
Thu 08:52:49 AM 35.3539 -82.4853 226° Southwest 432 497 33,100 -1,350 Descending Atlanta Center
Thu 08:53:49 AM 35.2858 -82.5681 225° Southwest 432 497 31,300 -2,050 Descending Atlanta Center
Thu 08:54:49 AM 35.1914 -82.6867 226° Southwest 436 502 29,000 -2,150 Descending Atlanta Center
Thu 08:55:49 AM 35.1069 -82.7922 226° Southwest 436 502 27,000 -1,600 Descending Atlanta Center
Thu 08:56:49 AM 35.0161 -82.9025 225° Southwest 442 509 25,800 -1,000 Descending Atlanta Center
Thu 08:57:49 AM 34.9336 -83.0075 226° Southwest 442 509 25,000 -900 Descending Atlanta Center
Thu 08:58:49 AM 34.8531 -83.1072 225° Southwest 431 496 24,000 -500 Descending Atlanta Center
Thu 08:59:49 AM 34.7722 -83.2042 225° Southwest 421 484 24,000  Level Atlanta Center
Thu 09:00:49 AM 34.6894 -83.3036 225° Southwest 421 484 24,000 -400 Level Atlanta Center
Thu 09:01:49 AM 34.5856 -83.3981 217° Southwest 421 484 23,200 -1,100 Descending Atlanta Center
Thu 09:02:49 AM 34.5319 -83.5194 242° Southwest 396 456 21,800 -1,550 Descending Atlanta Center
Thu 09:03:49 AM 34.4950 -83.6456 250° West 401 461 20,100 -900 Descending Atlanta Center
Thu 09:04:49 AM 34.4578 -83.7769 251° West 414 476 20,000 -250 Descending Atlanta Center
Thu 09:05:49 AM 34.4244 -83.9003 252° West 419 482 19,600 -1,400 Descending Atlanta Center
Thu 09:06:49 AM 34.3578 -84.0136 235° Southwest 387 445 17,200 -2,000 Descending Atlanta Center
Thu 09:07:49 AM 34.2617 -83.9936 170° South 297 342 15,600 -1,350 Descending Atlanta Center
Thu 09:08:49 AM 34.1719 -83.9508 158° South 305 351 14,500 -1,125 Descending Atlanta Center
Thu 09:09:41 AM 34.0833 -83.9000 155° Southeast 365 420 13,500 -1,415 Descending Atlanta TRACON
Thu 09:10:35 AM 34.0167 -83.9167 192° South 363 418 12,000 -833 Descending Atlanta TRACON
Thu 09:11:29 AM 33.9500 -83.9833 220° Southwest 313 360 12,000  Level Atlanta TRACON
Thu 09:12:35 AM 33.8833 -84.0667 226° Southwest 308 354 12,000  Level Atlanta TRACON
Thu 09:13:29 AM 33.8333 -84.1167 220° Southwest 265 305 12,000  Level Atlanta TRACON
Thu 09:14:23 AM 33.7833 -84.1500 209° Southwest 223 257 12,000  Level Atlanta TRACON
Thu 09:15:23 AM 33.7333 -84.1833 209° Southwest 226 260 12,000  Level Atlanta TRACON
Thu 09:16:23 AM 33.7333 -84.2667 270° West 236 272 12,000 -550 Level Atlanta TRACON
Thu 09:17:23 AM 33.7333 -84.3500 270° West 235 270 10,900 -1,105 Descending Atlanta TRACON
Thu 09:18:17 AM 33.7333 -84.4167 270° West 230 265 9,900 -1,158 Descending Atlanta TRACON
Thu 09:19:17 AM 33.7333 -84.4833 270° West 216 249 8,700 -1,263 Descending Atlanta TRACON
Thu 09:20:11 AM 33.7333 -84.5500 270° West 212 244 7,500 -1,368 Descending Atlanta TRACON
Thu 09:21:11 AM 33.7333 -84.6167 270° West 215 247 6,100 -1,316 Descending Atlanta TRACON
Thu 09:22:05 AM 33.7333 -84.6833 270° West 219 252 5,000 -579 Descending Atlanta TRACON
Thu 09:23:05 AM 33.7333 -84.7667 270° West 222 255 5,000  Level Atlanta TRACON
Thu 09:24:05 AM 33.7333 -84.8333 270° West 221 254 5,000  Level Atlanta TRACON
Thu 09:24:59 AM 33.7333 -84.9000 270° West 216 249 5,000  Level Atlanta TRACON
Thu 09:25:59 AM 33.6833 -84.9167 196° South 193 222 5,000  Level Atlanta TRACON
Thu 09:26:59 AM 33.6500 -84.8833 140° Southeast 157 181 5,000  Level Atlanta TRACON
Thu 09:27:59 AM 33.6500 -84.8333 90° East 159 183 5,000  Level Atlanta TRACON
Thu 09:28:59 AM 33.6500 -84.7667 90° East 157 181 5,000  Level Atlanta TRACON
Thu 09:29:59 AM 33.6500 -84.7167 90° East 159 183 5,000 -100 Level Atlanta TRACON
Thu 09:30:59 AM 33.6500 -84.6667 90° East 157 181 4,800 -550 Descending Atlanta TRACON
Thu 09:31:59 AM 33.6500 -84.6167 90° East 155 178 3,900 -900 Descending Atlanta TRACON

Login

Don't have an account? Register now (free) for customized features, flight alerts, and more!